createdAt,value
2022-12-25T00:00:42.243Z,87.60
2022-12-25T00:03:09.848Z,87.60
2022-12-25T00:05:39.201Z,87.40
2022-12-25T00:08:06.883Z,87.30
2022-12-25T00:10:33.906Z,87.30
2022-12-25T00:13:00.482Z,87.30
2022-12-25T00:15:27.233Z,87.30
2022-12-25T00:17:53.888Z,87.30
2022-12-25T00:20:20.504Z,87.20
2022-12-25T00:22:47.081Z,87.40
2022-12-25T00:25:13.642Z,87.30
2022-12-25T00:27:41.071Z,87.30
2022-12-25T00:30:08.423Z,87.30
2022-12-25T00:32:36.738Z,87.30
2022-12-25T00:35:05.007Z,87.30
2022-12-25T00:37:31.629Z,87.40
2022-12-25T00:39:58.220Z,87.40
2022-12-25T00:42:26.833Z,87.40
2022-12-25T00:44:53.491Z,87.30
2022-12-25T00:47:20.228Z,87.40
2022-12-25T00:49:46.935Z,87.50
2022-12-25T00:52:13.820Z,87.60
2022-12-25T00:54:40.446Z,87.80
2022-12-25T00:57:07.042Z,87.60
2022-12-25T00:59:34.637Z,87.90
2022-12-25T01:02:21.810Z,87.90
2022-12-25T01:04:50.128Z,87.90
2022-12-25T01:07:17.009Z,87.80
2022-12-25T01:10:03.206Z,87.90
2022-12-25T01:12:31.155Z,87.70
2022-12-25T01:14:57.789Z,87.60
2022-12-25T01:17:24.411Z,87.70
2022-12-25T01:19:51.123Z,87.70
2022-12-25T01:22:18.020Z,87.70
2022-12-25T01:24:44.945Z,88.50
2022-12-25T01:27:12.420Z,87.70
2022-12-25T01:29:39.367Z,87.70
2022-12-25T01:32:06.556Z,87.70
2022-12-25T01:34:33.539Z,87.70
2022-12-25T01:37:00.282Z,87.80
2022-12-25T01:39:27.257Z,87.60
2022-12-25T01:41:53.931Z,87.70
2022-12-25T01:44:35.822Z,87.70
2022-12-25T01:47:03.945Z,87.80
2022-12-25T01:49:34.556Z,87.70
2022-12-25T01:52:18.735Z,87.60
2022-12-25T01:54:58.210Z,87.70
2022-12-25T01:57:32.011Z,87.70
2022-12-25T02:00:00.013Z,87.70
2022-12-25T02:02:28.854Z,87.60
2022-12-25T02:05:07.801Z,87.70
2022-12-25T02:07:37.209Z,87.60
2022-12-25T02:10:04.399Z,87.60
2022-12-25T02:12:34.141Z,87.50
2022-12-25T02:15:06.488Z,87.30
2022-12-25T02:18:11.747Z,87.30
2022-12-25T02:21:13.278Z,87.50
2022-12-25T02:23:51.837Z,87.50
2022-12-25T02:26:30.444Z,87.20
2022-12-25T02:29:04.891Z,87.30
2022-12-25T02:31:55.376Z,87.20
2022-12-25T02:34:32.755Z,87.30
2022-12-25T02:37:17.961Z,87.30
2022-12-25T02:39:59.445Z,87.30
2022-12-25T02:42:59.444Z,87.70
2022-12-25T02:45:47.906Z,87.30
2022-12-25T02:48:55.072Z,87.30
2022-12-25T02:51:44.539Z,87.20
2022-12-25T02:54:34.404Z,87.20
2022-12-25T02:57:23.132Z,87.20
2022-12-25T03:00:10.462Z,87.20
2022-12-25T03:02:59.463Z,87.40
2022-12-25T03:05:46.388Z,87.50
2022-12-25T03:08:33.962Z,87.40
2022-12-25T03:11:23.560Z,87.30
2022-12-25T03:13:53.637Z,87.30
2022-12-25T03:16:39.326Z,87.40
2022-12-25T03:19:26.008Z,87.50
2022-12-25T03:22:12.743Z,87.50
2022-12-25T03:24:58.632Z,87.60
2022-12-25T03:27:26.808Z,87.80
2022-12-25T03:30:11.954Z,87.90
2022-12-25T03:32:58.697Z,88.00
2022-12-25T03:36:07.204Z,88.00
2022-12-25T03:39:20.821Z,88.00
2022-12-25T03:42:10.808Z,88.00
2022-12-25T03:45:13.112Z,88.00
2022-12-25T03:48:04.183Z,88.00
2022-12-25T03:50:57.233Z,87.90
2022-12-25T03:53:49.210Z,88.00
2022-12-25T03:56:37.428Z,88.00
2022-12-25T03:59:23.988Z,88.10
2022-12-25T04:02:10.247Z,88.00
2022-12-25T04:04:56.198Z,88.00
2022-12-25T04:07:41.652Z,88.00
2022-12-25T04:10:27.517Z,88.00
2022-12-25T04:13:12.912Z,87.90
2022-12-25T04:15:58.272Z,87.70
2022-12-25T04:18:43.515Z,87.70
2022-12-25T04:21:28.655Z,87.70
2022-12-25T04:24:14.189Z,87.70
2022-12-25T04:26:59.457Z,87.60
2022-12-25T04:29:44.949Z,87.70
2022-12-25T04:32:30.516Z,87.60
2022-12-25T04:35:15.817Z,87.60
2022-12-25T04:37:42.458Z,87.70
2022-12-25T04:40:09.664Z,87.70
2022-12-25T04:42:36.272Z,87.70
2022-12-25T04:45:02.911Z,87.70
2022-12-25T04:47:29.561Z,87.60
2022-12-25T04:49:56.146Z,87.60
2022-12-25T04:52:22.932Z,87.60
2022-12-25T04:54:49.561Z,87.60
2022-12-25T04:57:16.961Z,87.60
2022-12-25T04:59:43.684Z,87.50
2022-12-25T05:02:10.652Z,87.40
2022-12-25T05:04:37.387Z,87.30
2022-12-25T05:07:04.011Z,87.10
2022-12-25T05:09:30.664Z,87.20
2022-12-25T05:11:57.293Z,87.10
2022-12-25T05:14:23.861Z,87.30
2022-12-25T05:16:50.678Z,87.30
2022-12-25T05:19:17.304Z,87.00
2022-12-25T05:21:43.878Z,86.90
2022-12-25T05:24:10.441Z,87.00
2022-12-25T05:26:37.184Z,87.00
2022-12-25T05:29:03.768Z,87.00
2022-12-25T05:31:30.398Z,87.00
2022-12-25T05:33:57.085Z,87.00
2022-12-25T05:36:23.705Z,87.00
2022-12-25T05:38:50.672Z,87.10
2022-12-25T05:41:17.344Z,87.20
2022-12-25T05:43:43.975Z,87.40
2022-12-25T05:46:11.453Z,87.30
2022-12-25T05:48:38.608Z,87.40
2022-12-25T05:51:11.088Z,87.40
2022-12-25T05:53:37.948Z,87.40
2022-12-25T05:56:06.889Z,87.40
2022-12-25T05:58:35.676Z,87.40
2022-12-25T06:01:02.633Z,87.50
2022-12-25T06:03:29.439Z,87.50
2022-12-25T06:05:56.161Z,87.50
2022-12-25T06:08:22.736Z,87.40
2022-12-25T06:10:49.404Z,87.40
2022-12-25T06:13:16.031Z,87.40
2022-12-25T06:15:42.705Z,87.30
2022-12-25T06:18:09.353Z,87.10
2022-12-25T06:20:36.205Z,87.10
2022-12-25T06:23:02.802Z,87.00
2022-12-25T06:25:29.533Z,87.00
2022-12-25T06:27:56.110Z,87.00
2022-12-25T06:30:22.949Z,86.90
2022-12-25T06:32:49.669Z,87.00
2022-12-25T06:35:16.433Z,87.00
2022-12-25T06:37:43.032Z,87.10
2022-12-25T06:40:09.935Z,87.20
2022-12-25T06:42:36.490Z,87.30
2022-12-25T06:45:03.188Z,87.50
2022-12-25T06:47:29.825Z,87.40
2022-12-25T06:49:56.445Z,87.40
2022-12-25T06:52:23.019Z,87.40
2022-12-25T06:54:49.583Z,87.40
2022-12-25T06:57:16.248Z,87.40
2022-12-25T06:59:42.898Z,87.40
2022-12-25T07:02:18.662Z,87.50
2022-12-25T07:04:46.413Z,87.40
2022-12-25T07:07:13.290Z,87.50
2022-12-25T07:09:42.208Z,87.40
2022-12-25T07:12:14.562Z,87.50
2022-12-25T07:14:41.500Z,87.50
2022-12-25T07:17:08.134Z,87.40
2022-12-25T07:19:38.227Z,87.50
2022-12-25T07:22:07.783Z,87.50
2022-12-25T07:24:34.524Z,87.50
2022-12-25T07:27:01.106Z,87.50
2022-12-25T07:29:27.728Z,87.50
2022-12-25T07:31:54.473Z,87.50
2022-12-25T07:34:22.460Z,87.50
2022-12-25T07:36:49.069Z,87.50
2022-12-25T07:39:16.334Z,87.50
2022-12-25T07:41:43.619Z,87.50
2022-12-25T07:44:10.192Z,87.50
2022-12-25T07:46:36.824Z,87.50
2022-12-25T07:49:03.508Z,87.50
2022-12-25T07:51:30.363Z,87.60
2022-12-25T07:53:57.085Z,87.60
2022-12-25T07:56:23.742Z,87.50
2022-12-25T07:58:50.420Z,87.60
2022-12-25T08:01:21.078Z,87.50
2022-12-25T08:03:59.509Z,87.60
2022-12-25T08:06:31.052Z,87.60
2022-12-25T08:09:02.764Z,87.50
2022-12-25T08:11:29.360Z,87.50
2022-12-25T08:13:56.707Z,87.50
2022-12-25T08:16:23.436Z,87.60
2022-12-25T08:18:50.092Z,87.50
2022-12-25T08:21:16.840Z,87.50
2022-12-25T08:23:45.763Z,87.50
2022-12-25T08:26:15.309Z,87.60
2022-12-25T08:28:42.176Z,87.60
2022-12-25T08:31:18.875Z,87.60
2022-12-25T08:33:46.242Z,87.60
2022-12-25T08:36:13.851Z,87.60
2022-12-25T08:38:41.115Z,87.60
2022-12-25T08:41:08.484Z,87.60
2022-12-25T08:43:35.485Z,87.50
2022-12-25T08:46:02.802Z,87.50
2022-12-25T08:48:29.635Z,87.50
2022-12-25T08:50:57.233Z,87.40
2022-12-25T08:53:23.908Z,87.40
2022-12-25T08:56:00.493Z,87.40
2022-12-25T08:58:28.431Z,87.50
2022-12-25T09:00:56.167Z,87.50
2022-12-25T09:03:24.372Z,87.40
2022-12-25T09:05:52.525Z,87.30
2022-12-25T09:08:20.109Z,87.30
2022-12-25T09:10:46.727Z,87.30
2022-12-25T09:13:14.032Z,87.40
2022-12-25T09:15:41.147Z,87.40
2022-12-25T09:18:07.857Z,87.50
2022-12-25T09:20:34.455Z,87.40
2022-12-25T09:23:01.020Z,87.70
2022-12-25T09:25:27.652Z,87.30
2022-12-25T09:27:56.523Z,87.30
2022-12-25T09:30:23.608Z,87.50
2022-12-25T09:32:50.194Z,87.40
2022-12-25T09:35:18.914Z,87.40
2022-12-25T09:37:45.741Z,87.30
2022-12-25T09:40:18.487Z,87.40
2022-12-25T09:42:45.274Z,87.40
2022-12-25T09:45:17.564Z,87.40
2022-12-25T09:47:47.581Z,87.50
2022-12-25T09:50:34.339Z,87.40
2022-12-25T09:53:23.665Z,87.30
2022-12-25T09:56:01.572Z,87.40
2022-12-25T09:58:29.645Z,87.40
2022-12-25T10:01:07.624Z,87.40
2022-12-25T10:03:55.465Z,87.50
2022-12-25T10:06:41.096Z,87.60
2022-12-25T10:09:32.416Z,87.60
2022-12-25T10:12:23.853Z,87.60
2022-12-25T10:15:02.428Z,87.50
2022-12-25T10:18:00.603Z,87.70
2022-12-25T10:20:35.039Z,87.60
2022-12-25T10:23:09.878Z,87.50
2022-12-25T10:25:38.980Z,87.60
2022-12-25T10:28:14.175Z,87.60
2022-12-25T10:30:43.686Z,87.60
2022-12-25T10:33:17.080Z,87.60
2022-12-25T10:35:44.220Z,87.60
2022-12-25T10:38:17.059Z,87.60
2022-12-25T10:41:02.886Z,87.60
2022-12-25T10:43:51.444Z,87.60
2022-12-25T10:46:19.541Z,87.70
2022-12-25T10:49:02.764Z,87.60
2022-12-25T10:51:33.612Z,87.60
2022-12-25T10:54:02.457Z,87.50
2022-12-25T10:56:29.189Z,87.50
2022-12-25T10:59:10.419Z,87.50
2022-12-25T11:01:37.308Z,87.50
2022-12-25T11:04:04.214Z,87.50
2022-12-25T11:06:32.530Z,87.50
2022-12-25T11:09:01.565Z,87.60
2022-12-25T11:11:29.582Z,87.60
2022-12-25T11:14:01.499Z,87.80
2022-12-25T11:16:30.986Z,87.90
2022-12-25T11:18:59.350Z,87.80
2022-12-25T11:21:27.639Z,87.70
2022-12-25T11:24:00.739Z,87.50
2022-12-25T11:26:29.714Z,88.30
2022-12-25T11:28:56.838Z,87.60
2022-12-25T11:31:32.542Z,87.70
2022-12-25T11:33:59.187Z,87.70
2022-12-25T11:36:42.425Z,87.60
2022-12-25T11:39:24.168Z,87.70
2022-12-25T11:42:01.927Z,87.60
2022-12-25T11:45:07.894Z,87.60
2022-12-25T11:48:05.843Z,87.70
2022-12-25T11:50:36.491Z,87.70
2022-12-25T11:53:21.679Z,87.70
2022-12-25T11:55:58.601Z,87.60
2022-12-25T11:58:51.147Z,87.60
2022-12-25T12:01:32.505Z,87.50
2022-12-25T12:04:06.738Z,87.50
2022-12-25T12:07:04.943Z,87.50
2022-12-25T12:09:51.738Z,87.30
2022-12-25T12:12:36.461Z,87.20
2022-12-25T12:15:35.017Z,87.30
2022-12-25T12:18:19.958Z,87.30
2022-12-25T12:21:00.090Z,87.20
2022-12-25T12:23:28.254Z,87.50
2022-12-25T12:25:55.388Z,87.20
2022-12-25T12:28:26.338Z,87.30
2022-12-25T12:31:05.580Z,87.50
2022-12-25T12:33:41.355Z,87.50
2022-12-25T12:36:12.912Z,87.40
2022-12-25T12:38:41.130Z,87.50
2022-12-25T12:41:09.666Z,87.50
2022-12-25T12:43:39.031Z,87.50
2022-12-25T12:46:15.723Z,87.50
2022-12-25T12:48:45.311Z,87.50
2022-12-25T12:51:26.121Z,87.50
2022-12-25T12:54:23.149Z,87.40
2022-12-25T12:57:03.785Z,88.10
2022-12-25T12:59:41.187Z,87.20
2022-12-25T13:02:52.240Z,87.20
2022-12-25T13:05:52.541Z,87.30
2022-12-25T13:08:40.749Z,87.20
2022-12-25T13:11:15.827Z,87.30
2022-12-25T13:13:45.167Z,87.40
2022-12-25T13:16:29.240Z,87.40
2022-12-25T13:18:56.771Z,87.40
2022-12-25T13:21:26.361Z,87.40
2022-12-25T13:24:01.816Z,87.30
2022-12-25T13:26:29.430Z,87.40
2022-12-25T13:28:56.357Z,87.40
2022-12-25T13:31:25.981Z,87.50
2022-12-25T13:33:55.886Z,87.50
2022-12-25T13:36:22.580Z,87.40
2022-12-25T13:38:52.029Z,87.30
2022-12-25T13:41:41.187Z,87.20
2022-12-25T13:44:23.521Z,87.20
2022-12-25T13:46:50.405Z,87.30
2022-12-25T13:49:19.431Z,87.30
2022-12-25T13:51:46.451Z,87.20
2022-12-25T13:54:15.315Z,87.10
2022-12-25T13:56:55.762Z,87.10
2022-12-25T13:59:25.220Z,87.20
2022-12-25T14:01:53.932Z,87.30
2022-12-25T14:04:23.137Z,87.40
2022-12-25T14:06:51.513Z,87.30
2022-12-25T14:09:19.236Z,87.40
2022-12-25T14:11:50.187Z,87.30
2022-12-25T14:14:23.011Z,87.40
2022-12-25T14:16:53.245Z,87.40
2022-12-25T14:19:28.456Z,87.40
2022-12-25T14:22:01.998Z,87.30
2022-12-25T14:24:31.115Z,87.40
2022-12-25T14:27:00.843Z,87.30
2022-12-25T14:29:39.234Z,87.30
2022-12-25T14:32:09.508Z,87.40
2022-12-25T14:34:36.454Z,87.50
2022-12-25T14:37:18.815Z,87.40
2022-12-25T14:39:47.536Z,87.40
2022-12-25T14:42:22.790Z,87.40
2022-12-25T14:45:25.899Z,87.30
2022-12-25T14:47:55.173Z,87.30
2022-12-25T14:50:30.280Z,87.40
2022-12-25T14:52:58.644Z,87.40
2022-12-25T14:55:27.884Z,87.30
2022-12-25T14:58:01.284Z,87.40
2022-12-25T15:00:31.992Z,87.40
2022-12-25T15:02:59.983Z,87.40
2022-12-25T15:05:33.358Z,87.30
2022-12-25T15:08:08.760Z,87.40
2022-12-25T15:13:23.169Z,87.30
2022-12-25T15:15:58.523Z,87.30
2022-12-25T15:18:30.436Z,87.40
2022-12-25T15:20:57.167Z,87.30
2022-12-25T15:23:25.332Z,87.30
2022-12-25T15:25:52.413Z,87.40
2022-12-25T15:28:19.397Z,87.30
2022-12-25T15:30:46.578Z,87.40
2022-12-25T15:33:15.470Z,87.40
2022-12-25T15:35:44.356Z,87.50
2022-12-25T15:38:12.483Z,87.40
2022-12-25T15:40:40.100Z,87.50
2022-12-25T15:43:14.576Z,87.40
2022-12-25T15:45:54.177Z,87.50
2022-12-25T15:48:20.754Z,87.50
2022-12-25T15:50:47.314Z,87.50
2022-12-25T15:53:14.137Z,87.50
2022-12-25T15:55:40.954Z,87.50
2022-12-25T15:58:12.648Z,87.50
2022-12-25T16:00:39.277Z,87.60
2022-12-25T16:03:06.016Z,87.60
2022-12-25T16:05:32.785Z,87.50
2022-12-25T16:07:59.441Z,87.60
2022-12-25T16:10:26.095Z,87.60
2022-12-25T16:12:52.692Z,87.50
2022-12-25T16:15:19.292Z,87.40
2022-12-25T16:17:45.913Z,87.50
2022-12-25T16:20:12.911Z,87.50
2022-12-25T16:22:39.966Z,87.60
2022-12-25T16:25:19.025Z,87.60
2022-12-25T16:27:46.333Z,87.60
2022-12-25T16:30:15.608Z,87.50
2022-12-25T16:32:42.941Z,87.50
2022-12-25T16:35:10.856Z,87.50
2022-12-25T16:37:37.713Z,87.50
2022-12-25T16:40:04.708Z,87.40
2022-12-25T16:42:31.302Z,87.30
2022-12-25T16:44:57.935Z,87.30
2022-12-25T16:47:24.624Z,87.30
2022-12-25T16:49:51.191Z,87.30
2022-12-25T16:52:17.910Z,87.20
2022-12-25T16:54:47.606Z,87.30
2022-12-25T16:57:14.651Z,87.20
2022-12-25T16:59:41.727Z,87.30
2022-12-25T17:02:17.027Z,87.30
2022-12-25T17:04:44.647Z,87.20
2022-12-25T17:07:12.605Z,87.10
2022-12-25T17:09:44.148Z,87.00
2022-12-25T17:12:11.340Z,87.10
2022-12-25T17:14:38.095Z,87.10
2022-12-25T17:17:04.792Z,87.10
2022-12-25T17:19:31.501Z,87.20
2022-12-25T17:21:59.672Z,87.20
2022-12-25T17:24:27.109Z,87.20
2022-12-25T17:26:53.884Z,87.20
2022-12-25T17:29:22.603Z,87.20
2022-12-25T17:31:50.156Z,87.20
2022-12-25T17:34:17.160Z,87.20
2022-12-25T17:36:43.800Z,87.20
2022-12-25T17:39:11.464Z,87.10
2022-12-25T17:41:38.335Z,87.10
2022-12-25T17:44:05.077Z,87.00
2022-12-25T17:46:32.477Z,87.10
2022-12-25T17:49:00.792Z,87.20
2022-12-25T17:51:29.739Z,87.30
2022-12-25T17:53:59.705Z,87.30
2022-12-25T17:56:26.490Z,87.30
2022-12-25T17:58:55.679Z,87.20
2022-12-25T18:01:24.136Z,87.20
2022-12-25T18:03:51.484Z,87.30
2022-12-25T18:06:20.850Z,87.30
2022-12-25T18:08:48.279Z,87.30
2022-12-25T18:11:17.730Z,87.20
2022-12-25T18:13:48.282Z,87.20
2022-12-25T18:16:17.169Z,87.30
2022-12-25T18:18:49.526Z,87.30
2022-12-25T18:21:18.400Z,87.20
2022-12-25T18:23:46.176Z,87.10
2022-12-25T18:26:13.114Z,87.10
2022-12-25T18:28:39.925Z,87.10
2022-12-25T18:31:25.039Z,87.00
2022-12-25T18:33:52.354Z,87.00
2022-12-25T18:36:21.640Z,87.00
2022-12-25T18:38:49.376Z,86.90
2022-12-25T18:41:16.795Z,86.90
2022-12-25T18:43:52.877Z,86.90
2022-12-25T18:46:26.954Z,86.90
2022-12-25T18:48:55.969Z,86.90
2022-12-25T18:51:23.565Z,87.00
2022-12-25T18:53:51.034Z,87.00
2022-12-25T18:56:18.566Z,87.10
2022-12-25T18:58:46.415Z,87.20
2022-12-25T19:01:19.248Z,87.10
2022-12-25T19:03:46.492Z,87.10
2022-12-25T19:06:21.857Z,87.10
2022-12-25T19:08:48.772Z,87.20
2022-12-25T19:11:16.056Z,87.10
2022-12-25T19:13:43.387Z,87.20
2022-12-25T19:16:10.697Z,87.20
2022-12-25T19:18:38.635Z,87.10
2022-12-25T19:21:07.299Z,87.00
2022-12-25T19:23:34.769Z,87.10
2022-12-25T19:26:04.406Z,87.80
2022-12-25T19:28:31.093Z,87.10
2022-12-25T19:30:59.747Z,87.10
2022-12-25T19:33:26.374Z,87.10
2022-12-25T19:35:52.975Z,87.10
2022-12-25T19:38:20.148Z,87.10
2022-12-25T19:41:00.264Z,87.00
2022-12-25T19:43:35.771Z,87.00
2022-12-25T19:46:02.627Z,87.00
2022-12-25T19:48:31.506Z,87.00
2022-12-25T19:50:58.268Z,87.00
2022-12-25T19:53:25.343Z,87.00
2022-12-25T19:55:53.104Z,87.00
2022-12-25T19:58:21.302Z,87.00
2022-12-25T20:01:20.356Z,87.00
2022-12-25T20:03:48.444Z,87.00
2022-12-25T20:06:19.682Z,86.90
2022-12-25T20:08:47.775Z,86.90
2022-12-25T20:11:15.046Z,87.00
2022-12-25T20:13:41.713Z,87.00
2022-12-25T20:16:11.540Z,87.00
2022-12-25T20:18:39.426Z,87.00
2022-12-25T20:21:10.625Z,87.00
2022-12-25T20:23:37.540Z,87.00
2022-12-25T20:26:05.423Z,87.00
2022-12-25T20:28:34.591Z,87.00
2022-12-25T20:31:09.801Z,86.90
2022-12-25T20:33:37.528Z,86.90
2022-12-25T20:36:04.947Z,86.80
2022-12-25T20:38:31.969Z,86.90
2022-12-25T20:41:27.297Z,86.90
2022-12-25T20:43:55.019Z,86.90
2022-12-25T20:46:22.590Z,86.90
2022-12-25T20:48:49.382Z,86.80
2022-12-25T20:51:18.757Z,86.90
2022-12-25T20:53:46.226Z,86.80
2022-12-25T20:56:15.474Z,86.90
2022-12-25T20:58:42.667Z,86.80
2022-12-25T21:01:12.175Z,86.70
2022-12-25T21:03:38.976Z,86.80
2022-12-25T21:06:06.231Z,86.80
2022-12-25T21:08:32.991Z,86.80
2022-12-25T21:11:04.017Z,86.80
2022-12-25T21:13:33.331Z,87.00
2022-12-25T21:16:00.483Z,87.00
2022-12-25T21:18:28.303Z,87.00
2022-12-25T21:20:58.025Z,87.10
2022-12-25T21:23:28.669Z,87.20
2022-12-25T21:25:55.287Z,87.20
2022-12-25T21:28:22.838Z,87.20
2022-12-25T21:30:49.678Z,87.20
2022-12-25T21:33:35.065Z,87.30
2022-12-25T21:36:09.199Z,87.30
2022-12-25T21:38:38.450Z,87.20
2022-12-25T21:41:07.142Z,87.30
2022-12-25T21:43:35.360Z,87.30
2022-12-25T21:46:10.214Z,87.30
2022-12-25T21:48:37.598Z,87.40
2022-12-25T21:51:35.689Z,87.40
2022-12-25T21:54:03.133Z,87.30
2022-12-25T21:56:31.020Z,87.30
2022-12-25T21:59:02.767Z,87.40
2022-12-25T22:01:29.924Z,87.40
2022-12-25T22:04:01.437Z,87.50
2022-12-25T22:06:46.452Z,87.40
2022-12-25T22:09:13.063Z,87.50
2022-12-25T22:11:58.165Z,87.40
2022-12-25T22:14:51.629Z,87.50
2022-12-25T22:17:59.796Z,87.50
2022-12-25T22:20:34.515Z,87.50
2022-12-25T22:23:01.849Z,87.50
2022-12-25T22:25:28.476Z,87.50
2022-12-25T22:27:55.740Z,87.60
2022-12-25T22:30:28.411Z,87.70
2022-12-25T22:32:55.871Z,87.70
2022-12-25T22:35:22.692Z,87.80
2022-12-25T22:37:49.941Z,87.90
2022-12-25T22:40:18.523Z,87.90
2022-12-25T22:42:45.168Z,87.90
2022-12-25T22:45:12.613Z,88.00
2022-12-25T22:47:39.596Z,88.00
2022-12-25T22:50:07.030Z,88.00
2022-12-25T22:52:33.650Z,87.90
2022-12-25T22:55:00.330Z,87.70
2022-12-25T22:57:27.030Z,87.90
2022-12-25T22:59:53.891Z,87.90
2022-12-25T23:02:21.087Z,87.90
2022-12-25T23:04:47.964Z,87.80
2022-12-25T23:07:15.563Z,87.80
2022-12-25T23:09:43.802Z,87.70
2022-12-25T23:12:33.720Z,87.70
2022-12-25T23:15:00.387Z,87.70
2022-12-25T23:17:45.913Z,87.70
2022-12-25T23:20:33.452Z,87.70
2022-12-25T23:23:19.323Z,87.70
2022-12-25T23:26:04.832Z,87.70
2022-12-25T23:28:50.140Z,87.70
2022-12-25T23:31:16.972Z,87.80
2022-12-25T23:33:43.608Z,87.90
2022-12-25T23:36:10.201Z,87.80
2022-12-25T23:38:36.781Z,87.90
2022-12-25T23:41:03.482Z,87.90
2022-12-25T23:43:30.245Z,87.80
2022-12-25T23:45:56.799Z,87.80
2022-12-25T23:48:23.376Z,87.80
2022-12-25T23:50:50.003Z,87.80
2022-12-25T23:53:16.707Z,87.80
2022-12-25T23:55:43.601Z,87.90
2022-12-25T23:58:10.374Z,87.90
